createdAt,value
2022-11-16T00:01:41.978Z,91.95
2022-11-16T00:04:11.912Z,92.49
2022-11-16T00:06:39.010Z,92.69
2022-11-16T00:09:23.788Z,92.38
2022-11-16T00:11:52.321Z,92.25
2022-11-16T00:14:21.569Z,92.31
2022-11-16T00:16:48.300Z,91.84
2022-11-16T00:19:14.872Z,92.13
2022-11-16T00:21:41.753Z,92.36
2022-11-16T00:24:12.119Z,91.94
2022-11-16T00:26:38.642Z,92.49
2022-11-16T00:29:05.134Z,92.58
2022-11-16T00:31:31.818Z,92.26
2022-11-16T00:33:58.350Z,92.21
2022-11-16T00:36:24.857Z,92.08
2022-11-16T00:38:54.523Z,91.40
2022-11-16T00:41:21.546Z,91.56
2022-11-16T00:43:48.147Z,91.70
2022-11-16T00:46:14.714Z,91.97
2022-11-16T00:48:41.251Z,92.15
2022-11-16T00:51:07.813Z,91.70
2022-11-16T00:53:35.689Z,92.67
2022-11-16T00:56:02.395Z,92.19
2022-11-16T00:58:28.902Z,91.97
2022-11-16T01:00:55.571Z,92.59
2022-11-16T01:03:22.141Z,92.22
2022-11-16T01:05:48.687Z,91.91
2022-11-16T01:08:15.240Z,92.52
2022-11-16T01:10:41.990Z,91.77
2022-11-16T01:13:08.531Z,92.47
2022-11-16T01:15:35.045Z,91.56
2022-11-16T01:18:01.535Z,92.25
2022-11-16T01:20:29.498Z,91.68
2022-11-16T01:22:56.450Z,91.73
2022-11-16T01:25:22.974Z,92.32
2022-11-16T01:27:49.524Z,91.97
2022-11-16T01:30:16.722Z,91.68
2022-11-16T01:32:43.296Z,91.85
2022-11-16T01:35:14.409Z,91.48
2022-11-16T01:37:40.948Z,92.19
2022-11-16T01:40:08.124Z,91.72
2022-11-16T01:42:34.735Z,91.60
2022-11-16T01:45:04.232Z,92.12
2022-11-16T01:47:31.245Z,91.88
2022-11-16T01:50:09.196Z,91.95
2022-11-16T01:52:38.730Z,91.94
2022-11-16T01:55:06.006Z,91.94
2022-11-16T01:57:36.409Z,92.14
2022-11-16T02:00:07.040Z,91.90
2022-11-16T02:02:33.698Z,92.17
2022-11-16T02:05:01.904Z,92.66
2022-11-16T02:07:54.351Z,92.00
2022-11-16T02:10:30.782Z,92.37
2022-11-16T02:13:06.125Z,92.66
2022-11-16T02:16:26.295Z,92.33
2022-11-16T02:19:22.650Z,92.11
2022-11-16T02:22:14.568Z,92.41
2022-11-16T02:24:47.335Z,92.52
2022-11-16T02:27:35.269Z,91.94
2022-11-16T02:30:04.126Z,92.46
2022-11-16T02:32:44.091Z,91.88
2022-11-16T02:35:46.706Z,92.74
2022-11-16T02:38:21.508Z,91.83
2022-11-16T02:40:53.908Z,92.22
2022-11-16T02:43:30.890Z,92.22
2022-11-16T02:46:01.624Z,92.58
2022-11-16T02:48:35.761Z,92.24
2022-11-16T02:51:03.854Z,93.02
2022-11-16T02:53:37.206Z,93.12
2022-11-16T02:56:03.819Z,92.89
2022-11-16T02:58:30.655Z,92.02
2022-11-16T03:01:08.608Z,92.85
2022-11-16T03:03:47.344Z,92.20
2022-11-16T03:06:19.170Z,92.74
2022-11-16T03:08:56.800Z,91.86
2022-11-16T03:11:42.462Z,91.73
2022-11-16T03:14:14.504Z,92.32
2022-11-16T03:16:48.864Z,92.30
2022-11-16T03:19:22.392Z,92.18
2022-11-16T03:21:58.130Z,92.60
2022-11-16T03:24:25.441Z,92.04
2022-11-16T03:26:57.863Z,91.57
2022-11-16T03:29:31.492Z,92.45
2022-11-16T03:32:04.191Z,92.41
2022-11-16T03:34:35.573Z,92.27
2022-11-16T03:37:04.200Z,91.45
2022-11-16T03:39:36.615Z,91.75
2022-11-16T03:42:06.921Z,91.94
2022-11-16T03:44:35.141Z,91.40
2022-11-16T03:47:01.974Z,91.81
2022-11-16T03:49:31.157Z,91.74
2022-11-16T03:51:58.337Z,91.84
2022-11-16T03:54:25.303Z,92.64
2022-11-16T03:56:51.890Z,92.45
2022-11-16T03:59:18.438Z,91.76
2022-11-16T04:01:45.152Z,91.94
2022-11-16T04:04:31.904Z,91.52
2022-11-16T04:07:17.096Z,91.60
2022-11-16T04:10:02.147Z,92.70
2022-11-16T04:12:47.502Z,92.12
2022-11-16T04:15:32.518Z,91.81
2022-11-16T04:18:17.438Z,92.61
2022-11-16T04:21:04.050Z,92.19
2022-11-16T04:23:49.362Z,92.89
2022-11-16T04:26:16.179Z,92.58
2022-11-16T04:28:43.213Z,92.78
2022-11-16T04:31:28.559Z,92.30
2022-11-16T04:34:13.780Z,93.02
2022-11-16T04:36:58.694Z,92.79
2022-11-16T04:39:25.287Z,92.76
2022-11-16T04:42:10.342Z,92.79
2022-11-16T04:44:56.042Z,92.23
2022-11-16T04:47:22.622Z,91.94
2022-11-16T04:49:49.205Z,92.05
2022-11-16T04:52:15.858Z,91.99
2022-11-16T04:54:42.390Z,91.73
2022-11-16T04:57:09.050Z,92.42
2022-11-16T04:59:35.544Z,91.63
2022-11-16T05:02:08.187Z,92.14
2022-11-16T05:04:39.309Z,92.08
2022-11-16T05:07:11.107Z,91.83
2022-11-16T05:09:41.463Z,92.62
2022-11-16T05:12:14.950Z,92.12
2022-11-16T05:14:42.900Z,92.61
2022-11-16T05:17:10.023Z,92.23
2022-11-16T05:19:55.390Z,91.81
2022-11-16T05:22:22.441Z,91.67
2022-11-16T05:24:49.039Z,92.21
2022-11-16T05:27:17.018Z,92.26
2022-11-16T05:29:44.187Z,91.71
2022-11-16T05:32:12.575Z,92.64
2022-11-16T05:34:39.650Z,92.42
2022-11-16T05:37:06.288Z,92.14
2022-11-16T05:39:33.820Z,91.73
2022-11-16T05:42:00.805Z,92.56
2022-11-16T05:44:27.349Z,92.54
2022-11-16T05:46:55.247Z,92.11
2022-11-16T05:49:22.007Z,91.78
2022-11-16T05:51:49.162Z,92.66
2022-11-16T05:54:21.192Z,92.51
2022-11-16T05:56:49.603Z,93.05
2022-11-16T05:59:18.842Z,92.12
2022-11-16T06:01:46.188Z,92.87
2022-11-16T06:04:13.878Z,92.55
2022-11-16T06:06:40.808Z,92.34
2022-11-16T06:09:08.607Z,92.68
2022-11-16T06:11:36.475Z,92.62
2022-11-16T06:14:03.483Z,92.26
2022-11-16T06:16:30.014Z,92.16
2022-11-16T06:18:56.701Z,92.39
2022-11-16T06:21:23.449Z,92.33
2022-11-16T06:23:50.033Z,92.88
2022-11-16T06:26:17.831Z,92.93
2022-11-16T06:28:44.861Z,92.29
2022-11-16T06:31:11.417Z,91.77
2022-11-16T06:33:38.076Z,91.85
2022-11-16T06:36:05.034Z,92.69
2022-11-16T06:38:31.868Z,92.17
2022-11-16T06:40:59.430Z,92.72
2022-11-16T06:43:26.463Z,92.18
2022-11-16T06:45:56.139Z,92.57
2022-11-16T06:48:22.759Z,92.55
2022-11-16T06:50:50.634Z,92.26
2022-11-16T06:53:17.729Z,91.91
2022-11-16T06:55:44.425Z,92.65
2022-11-16T06:58:11.218Z,92.10
2022-11-16T07:00:39.617Z,91.70
2022-11-16T07:03:06.227Z,91.52
2022-11-16T07:05:33.220Z,91.74
2022-11-16T07:07:59.801Z,92.57
2022-11-16T07:10:26.516Z,91.83
2022-11-16T07:12:53.063Z,92.41
2022-11-16T07:15:19.744Z,92.53
2022-11-16T07:17:46.270Z,92.11
2022-11-16T07:20:13.273Z,91.54
2022-11-16T07:22:39.946Z,91.92
2022-11-16T07:25:07.163Z,92.07
2022-11-16T07:27:33.741Z,91.88
2022-11-16T07:30:02.109Z,92.11
2022-11-16T07:32:30.852Z,91.99
2022-11-16T07:34:59.637Z,91.49
2022-11-16T07:37:26.908Z,92.07
2022-11-16T07:39:53.424Z,92.07
2022-11-16T07:42:19.974Z,91.93
2022-11-16T07:44:46.555Z,91.62
2022-11-16T07:47:13.034Z,91.85
2022-11-16T07:49:39.653Z,92.27
2022-11-16T07:52:09.711Z,91.77
2022-11-16T07:54:36.958Z,92.08
2022-11-16T07:57:03.614Z,91.09
2022-11-16T07:59:31.193Z,91.00
2022-11-16T08:01:59.270Z,91.39
2022-11-16T08:04:26.075Z,90.99
2022-11-16T08:06:52.740Z,91.53
2022-11-16T08:09:19.418Z,91.84
2022-11-16T08:11:47.150Z,91.84
2022-11-16T08:14:14.023Z,91.67
2022-11-16T08:16:40.566Z,91.03
2022-11-16T08:19:07.045Z,91.12
2022-11-16T08:21:33.692Z,91.09
2022-11-16T08:24:02.243Z,91.21
2022-11-16T08:26:28.893Z,91.52
2022-11-16T08:28:56.550Z,91.66
2022-11-16T08:31:26.078Z,91.01
2022-11-16T08:33:52.957Z,91.60
2022-11-16T08:36:19.877Z,91.47
2022-11-16T08:38:48.160Z,91.51
2022-11-16T08:41:15.983Z,91.37
2022-11-16T08:43:42.628Z,91.01
2022-11-16T08:46:10.463Z,91.19
2022-11-16T08:48:38.110Z,91.70
2022-11-16T08:51:22.522Z,91.40
2022-11-16T08:53:50.110Z,91.57
2022-11-16T08:56:18.662Z,90.79
2022-11-16T08:58:51.371Z,90.78
2022-11-16T09:01:22.889Z,90.82
2022-11-16T09:03:50.034Z,89.99
2022-11-16T09:06:16.975Z,90.71
2022-11-16T09:08:44.654Z,90.56
2022-11-16T09:11:14.055Z,89.82
2022-11-16T09:13:40.590Z,90.11
2022-11-16T09:16:07.452Z,89.91
2022-11-16T09:18:34.731Z,89.29
2022-11-16T09:21:01.547Z,90.16
2022-11-16T09:23:28.086Z,90.06
2022-11-16T09:25:55.422Z,89.48
2022-11-16T09:28:22.622Z,90.18
2022-11-16T09:30:51.258Z,88.96
2022-11-16T09:33:18.265Z,89.20
2022-11-16T09:35:44.921Z,88.72
2022-11-16T09:38:19.117Z,89.23
2022-11-16T09:40:52.075Z,88.13
2022-11-16T09:43:45.839Z,88.04
2022-11-16T09:46:27.321Z,85.22
2022-11-16T09:48:58.096Z,87.15
2022-11-16T09:51:29.556Z,87.10
2022-11-16T09:54:14.093Z,87.65
2022-11-16T09:56:42.414Z,87.22
2022-11-16T09:59:12.226Z,87.55
2022-11-16T10:01:47.953Z,87.42
2022-11-16T10:04:38.582Z,86.75
2022-11-16T10:07:27.529Z,85.78
2022-11-16T10:09:56.092Z,86.41
2022-11-16T10:12:43.780Z,85.84
2022-11-16T10:15:37.124Z,86.17
2022-11-16T10:18:06.504Z,86.28
2022-11-16T10:20:51.811Z,85.95
2022-11-16T10:23:24.254Z,86.25
2022-11-16T10:25:58.909Z,85.96
2022-11-16T10:28:55.820Z,84.62
2022-11-16T10:31:51.393Z,85.39
2022-11-16T10:34:22.811Z,86.10
2022-11-16T10:36:49.376Z,85.33
2022-11-16T10:39:19.166Z,85.59
2022-11-16T10:41:53.055Z,85.51
2022-11-16T10:44:30.139Z,84.64
2022-11-16T10:47:19.941Z,84.50
2022-11-16T10:50:02.240Z,85.79
2022-11-16T10:52:28.908Z,85.81
2022-11-16T10:54:55.405Z,85.54
2022-11-16T10:57:23.843Z,85.42
2022-11-16T10:59:55.431Z,85.36
2022-11-16T11:02:24.665Z,84.82
2022-11-16T11:05:17.141Z,85.02
2022-11-16T11:07:48.706Z,85.05
2022-11-16T11:10:35.335Z,84.81
2022-11-16T11:13:04.330Z,84.77
2022-11-16T11:15:31.246Z,84.04
2022-11-16T11:18:24.910Z,82.25
2022-11-16T11:21:12.348Z,82.73
2022-11-16T11:23:46.830Z,82.73
2022-11-16T11:26:36.188Z,82.29
2022-11-16T11:29:16.904Z,82.01
2022-11-16T11:31:47.192Z,82.19
2022-11-16T11:34:21.783Z,82.20
2022-11-16T11:36:55.661Z,82.43
2022-11-16T11:39:22.157Z,82.59
2022-11-16T11:42:14.804Z,81.23
2022-11-16T11:44:52.070Z,83.20
2022-11-16T11:50:24.767Z,82.67
2022-11-16T11:53:11.601Z,83.59
2022-11-16T11:55:39.666Z,83.59
2022-11-16T11:58:15.317Z,84.22
2022-11-16T12:01:25.049Z,83.95
2022-11-16T12:03:58.479Z,83.47
2022-11-16T12:06:51.028Z,84.20
2022-11-16T12:09:29.870Z,83.26
2022-11-16T12:12:22.395Z,83.36
2022-11-16T12:15:12.223Z,82.94
2022-11-16T12:17:55.659Z,83.60
2022-11-16T12:20:45.160Z,82.60
2022-11-16T12:23:14.701Z,83.83
2022-11-16T12:26:06.808Z,83.65
2022-11-16T12:28:51.235Z,83.86
2022-11-16T12:31:27.332Z,83.28
2022-11-16T12:34:04.973Z,82.54
2022-11-16T12:37:02.322Z,82.87
2022-11-16T12:39:35.755Z,82.34
2022-11-16T12:42:20.574Z,83.01
2022-11-16T12:45:05.466Z,82.41
2022-11-16T12:48:01.199Z,82.14
2022-11-16T12:50:46.574Z,81.69
2022-11-16T12:53:34.902Z,82.45
2022-11-16T12:56:48.888Z,83.21
2022-11-16T12:59:44.617Z,82.98
2022-11-16T13:02:29.505Z,82.78
2022-11-16T13:05:12.342Z,82.76
2022-11-16T13:08:05.459Z,82.57
2022-11-16T13:10:36.642Z,83.84
2022-11-16T13:13:35.404Z,82.41
2022-11-16T13:16:02.504Z,83.28
2022-11-16T13:18:30.142Z,83.14
2022-11-16T13:21:18.806Z,82.18
2022-11-16T13:24:33.664Z,81.94
2022-11-16T13:27:12.058Z,82.24
2022-11-16T13:29:48.255Z,81.80
2022-11-16T13:32:37.386Z,82.58
2022-11-16T13:35:06.567Z,82.88
2022-11-16T13:37:39.245Z,80.75
2022-11-16T13:40:05.675Z,82.19
2022-11-16T13:42:43.830Z,82.38
2022-11-16T13:45:21.961Z,80.66
2022-11-16T13:47:51.805Z,82.32
2022-11-16T13:50:26.487Z,81.98
2022-11-16T13:54:10.942Z,81.76
2022-11-16T13:55:46.787Z,81.87
2022-11-16T13:58:21.236Z,82.65
2022-11-16T14:01:01.813Z,82.02
2022-11-16T14:03:31.987Z,82.57
2022-11-16T14:05:58.783Z,82.32
2022-11-16T14:08:35.033Z,82.73
2022-11-16T14:11:03.334Z,82.79
2022-11-16T14:13:48.444Z,83.18
2022-11-16T14:16:14.882Z,83.02
2022-11-16T14:18:42.839Z,83.54
2022-11-16T14:21:40.214Z,82.73
2022-11-16T14:24:09.434Z,83.53
2022-11-16T14:26:57.918Z,83.60
2022-11-16T14:30:01.793Z,82.63
2022-11-16T14:32:41.248Z,83.06
2022-11-16T14:35:25.985Z,82.30
2022-11-16T14:38:04.641Z,81.65
2022-11-16T14:40:42.011Z,82.17
2022-11-16T14:43:28.082Z,81.62
2022-11-16T14:46:04.360Z,82.07
2022-11-16T14:48:31.340Z,81.46
2022-11-16T14:51:13.371Z,82.17
2022-11-16T14:53:45.604Z,81.89
2022-11-16T14:56:14.763Z,82.68
2022-11-16T14:59:00.639Z,82.50
2022-11-16T15:01:38.929Z,82.71
2022-11-16T15:04:12.228Z,82.01
2022-11-16T15:06:45.688Z,82.39
2022-11-16T15:09:40.534Z,82.98
2022-11-16T15:12:33.107Z,82.72
2022-11-16T15:15:07.323Z,82.89
2022-11-16T15:17:34.710Z,83.55
2022-11-16T15:20:04.650Z,83.94
2022-11-16T15:22:39.298Z,83.27
2022-11-16T15:25:06.264Z,84.04
2022-11-16T15:27:38.712Z,82.58
2022-11-16T15:30:27.402Z,83.19
2022-11-16T15:32:54.846Z,83.29
2022-11-16T15:35:32.944Z,82.29
2022-11-16T15:38:11.339Z,82.46
2022-11-16T15:40:38.069Z,83.06
2022-11-16T15:43:06.557Z,83.09
2022-11-16T15:45:34.081Z,83.08
2022-11-16T15:48:03.361Z,83.79
2022-11-16T15:50:30.292Z,82.86
2022-11-16T15:52:59.579Z,83.42
2022-11-16T15:55:36.194Z,83.08
2022-11-16T15:58:26.440Z,83.64
2022-11-16T16:00:54.632Z,83.32
2022-11-16T16:03:26.571Z,84.36
2022-11-16T16:05:54.576Z,84.74
2022-11-16T16:08:34.061Z,83.49
2022-11-16T16:11:27.671Z,84.67
2022-11-16T16:14:02.627Z,83.92
2022-11-16T16:16:31.857Z,84.74
2022-11-16T16:19:06.667Z,84.18
2022-11-16T16:21:45.751Z,84.53
2022-11-16T16:24:38.959Z,84.95
2022-11-16T16:27:19.658Z,84.91
2022-11-16T16:29:47.621Z,85.11
2022-11-16T16:32:24.570Z,85.09
2022-11-16T16:34:53.037Z,85.14
2022-11-16T16:37:19.996Z,84.85
2022-11-16T16:39:46.642Z,85.36
2022-11-16T16:42:15.905Z,86.06
2022-11-16T16:44:44.260Z,86.06
2022-11-16T16:47:11.284Z,86.02
2022-11-16T16:49:38.100Z,85.71
2022-11-16T16:52:05.701Z,86.22
2022-11-16T16:54:32.257Z,85.36
2022-11-16T16:57:01.365Z,85.96
2022-11-16T16:59:29.951Z,85.97
2022-11-16T17:01:57.589Z,86.39
2022-11-16T17:04:24.432Z,85.99
2022-11-16T17:06:52.846Z,86.63
2022-11-16T17:09:19.619Z,86.35
2022-11-16T17:11:47.431Z,86.36
2022-11-16T17:14:13.979Z,86.68
2022-11-16T17:16:40.520Z,86.95
2022-11-16T17:19:07.116Z,85.81
2022-11-16T17:21:33.621Z,86.18
2022-11-16T17:24:00.431Z,87.05
2022-11-16T17:26:29.615Z,86.56
2022-11-16T17:28:57.539Z,86.31
2022-11-16T17:31:25.779Z,87.06
2022-11-16T17:33:52.774Z,86.34
2022-11-16T17:36:19.746Z,86.81
2022-11-16T17:38:46.881Z,86.94
2022-11-16T17:41:18.739Z,86.28
2022-11-16T17:43:46.406Z,87.01
2022-11-16T17:46:18.705Z,87.13
2022-11-16T17:48:47.222Z,86.83
2022-11-16T17:51:22.043Z,86.74
2022-11-16T17:53:49.856Z,86.75
2022-11-16T17:56:19.099Z,86.45
2022-11-16T17:58:46.091Z,86.67
2022-11-16T18:01:13.888Z,87.06
2022-11-16T18:03:40.463Z,87.27
2022-11-16T18:06:18.807Z,86.79
2022-11-16T18:08:45.721Z,87.08
2022-11-16T18:11:21.074Z,86.76
2022-11-16T18:13:48.100Z,87.22
2022-11-16T18:16:16.025Z,87.91
2022-11-16T18:18:43.290Z,87.44
2022-11-16T18:21:11.964Z,87.55
2022-11-16T18:23:40.756Z,87.05
2022-11-16T18:26:13.749Z,87.83
2022-11-16T18:28:41.164Z,87.71
2022-11-16T18:31:11.258Z,88.17
2022-11-16T18:33:39.019Z,88.29
2022-11-16T18:36:07.473Z,87.90
2022-11-16T18:38:34.393Z,88.15
2022-11-16T18:41:03.880Z,87.94
2022-11-16T18:43:30.535Z,87.66
2022-11-16T18:45:57.038Z,87.94
2022-11-16T18:48:23.583Z,87.81
2022-11-16T18:50:50.118Z,88.14
2022-11-16T18:53:16.631Z,88.27
2022-11-16T18:55:44.192Z,87.49
2022-11-16T18:58:23.072Z,88.24
2022-11-16T19:01:08.819Z,87.87
2022-11-16T19:03:35.714Z,88.23
2022-11-16T19:06:07.753Z,88.01
2022-11-16T19:08:35.390Z,88.38
2022-11-16T19:11:10.133Z,88.70
2022-11-16T19:13:37.448Z,87.93
2022-11-16T19:16:05.070Z,87.58
2022-11-16T19:18:31.628Z,87.86
2022-11-16T19:21:12.889Z,88.46
2022-11-16T19:23:42.847Z,87.99
2022-11-16T19:26:12.210Z,87.94
2022-11-16T19:28:40.425Z,87.88
2022-11-16T19:31:12.612Z,88.15
2022-11-16T19:33:40.121Z,87.75
2022-11-16T19:36:07.642Z,88.47
2022-11-16T19:38:34.494Z,88.02
2022-11-16T19:41:01.624Z,88.79
2022-11-16T19:43:28.196Z,88.10
2022-11-16T19:45:54.778Z,88.49
2022-11-16T19:48:21.368Z,88.21
2022-11-16T19:50:47.911Z,89.04
2022-11-16T19:53:14.410Z,88.75
2022-11-16T19:55:41.877Z,88.31
2022-11-16T19:58:08.355Z,88.14
2022-11-16T20:00:34.977Z,88.24
2022-11-16T20:03:01.671Z,89.12
2022-11-16T20:05:30.053Z,88.67
2022-11-16T20:07:56.592Z,88.70
2022-11-16T20:10:23.084Z,88.77
2022-11-16T20:12:49.769Z,88.69
2022-11-16T20:15:16.455Z,89.18
2022-11-16T20:17:42.994Z,89.14
2022-11-16T20:20:09.807Z,89.05
2022-11-16T20:22:36.334Z,89.42
2022-11-16T20:25:02.909Z,88.80
2022-11-16T20:27:29.421Z,88.76
2022-11-16T20:29:55.974Z,89.60
2022-11-16T20:32:23.744Z,89.61
2022-11-16T20:34:50.290Z,89.78
2022-11-16T20:37:17.208Z,88.97
2022-11-16T20:39:45.964Z,89.49
2022-11-16T20:42:13.386Z,89.81
2022-11-16T20:44:39.913Z,88.65
2022-11-16T20:47:06.488Z,89.57
2022-11-16T20:49:33.038Z,89.46
2022-11-16T20:51:59.610Z,88.73
2022-11-16T20:54:26.329Z,89.30
2022-11-16T20:56:52.900Z,88.47
2022-11-16T20:59:19.675Z,88.95
2022-11-16T21:01:48.755Z,88.83
2022-11-16T21:04:15.560Z,88.98
2022-11-16T21:06:42.262Z,89.85
2022-11-16T21:09:11.795Z,89.60
2022-11-16T21:11:56.792Z,88.93
2022-11-16T21:14:23.437Z,88.86
2022-11-16T21:16:49.975Z,89.12
2022-11-16T21:19:19.654Z,89.04
2022-11-16T21:21:48.482Z,88.80
2022-11-16T21:24:15.391Z,88.96
2022-11-16T21:26:41.924Z,89.21
2022-11-16T21:29:08.702Z,89.83
2022-11-16T21:31:36.575Z,89.67
2022-11-16T21:34:03.731Z,89.50
2022-11-16T21:36:32.113Z,89.49
2022-11-16T21:38:59.107Z,90.12
2022-11-16T21:41:26.548Z,89.45
2022-11-16T21:43:55.054Z,89.99
2022-11-16T21:46:24.868Z,89.60
2022-11-16T21:48:52.898Z,89.20
2022-11-16T21:51:21.835Z,89.34
2022-11-16T21:53:48.870Z,89.22
2022-11-16T21:56:20.950Z,89.34
2022-11-16T21:58:49.811Z,89.50
2022-11-16T22:01:16.523Z,89.04
2022-11-16T22:03:44.697Z,89.11
2022-11-16T22:06:34.207Z,89.61
2022-11-16T22:09:01.432Z,89.13
2022-11-16T22:11:28.116Z,89.54
2022-11-16T22:13:54.618Z,89.60
2022-11-16T22:16:23.325Z,89.26
2022-11-16T22:18:50.341Z,89.99
2022-11-16T22:21:16.948Z,89.68
2022-11-16T22:23:43.488Z,89.44
2022-11-16T22:26:12.565Z,89.61
2022-11-16T22:28:39.439Z,89.09
2022-11-16T22:31:14.008Z,89.04
2022-11-16T22:33:41.810Z,89.29
2022-11-16T22:36:10.382Z,88.84
2022-11-16T22:38:36.992Z,89.86
2022-11-16T22:41:03.704Z,89.82
2022-11-16T22:43:31.127Z,89.53
2022-11-16T22:46:02.106Z,89.35
2022-11-16T22:48:37.771Z,89.76
2022-11-16T22:51:05.736Z,89.61
2022-11-16T22:53:32.914Z,89.27
2022-11-16T22:56:04.829Z,89.21
2022-11-16T22:58:31.373Z,89.67
2022-11-16T23:00:58.045Z,89.74
2022-11-16T23:03:24.649Z,89.16
2022-11-16T23:05:51.345Z,89.73
2022-11-16T23:08:17.920Z,88.74
2022-11-16T23:11:04.046Z,89.83
2022-11-16T23:13:48.897Z,89.66
2022-11-16T23:16:15.397Z,89.75
2022-11-16T23:18:41.909Z,89.67
2022-11-16T23:21:27.097Z,89.00
2022-11-16T23:24:25.662Z,90.14
2022-11-16T23:27:10.589Z,89.52
2022-11-16T23:29:37.143Z,89.52
2022-11-16T23:32:03.790Z,89.65
2022-11-16T23:34:30.315Z,89.68
2022-11-16T23:37:02.757Z,89.91
2022-11-16T23:39:29.378Z,89.61
2022-11-16T23:42:14.702Z,89.76
2022-11-16T23:44:41.744Z,89.86
2022-11-16T23:47:08.613Z,88.87
2022-11-16T23:49:35.199Z,89.35
2022-11-16T23:52:01.945Z,88.82
2022-11-16T23:54:28.440Z,89.60
2022-11-16T23:56:54.977Z,89.39
2022-11-16T23:59:21.485Z,89.21
